createdAt,value
2017-12-19T00:00:36.258Z,53.83
2017-12-19T00:03:04.286Z,59.33
2017-12-19T00:05:32.341Z,49.57
2017-12-19T00:08:01.039Z,60.30
2017-12-19T00:10:29.257Z,60.93
2017-12-19T00:12:58.033Z,57.47
2017-12-19T00:15:26.326Z,59.57
2017-12-19T00:17:54.570Z,58.90
2017-12-19T00:20:22.886Z,52.13
2017-12-19T00:22:51.419Z,44.07
2017-12-19T00:25:19.706Z,50.67
2017-12-19T00:27:47.979Z,56.33
2017-12-19T00:30:16.236Z,67.20
2017-12-19T00:32:44.517Z,48.63
2017-12-19T00:35:13.573Z,59.27
2017-12-19T00:37:41.813Z,63.17
2017-12-19T00:40:10.085Z,58.67
2017-12-19T00:42:38.330Z,55.67
2017-12-19T00:45:06.623Z,54.40
2017-12-19T00:47:35.634Z,45.83
2017-12-19T00:50:03.910Z,52.50
2017-12-19T00:52:32.927Z,54.43
2017-12-19T00:55:01.192Z,54.13
2017-12-19T00:57:29.489Z,51.63
2017-12-19T00:59:57.730Z,61.13
2017-12-19T01:02:26.727Z,52.27
2017-12-19T01:04:54.981Z,57.30
2017-12-19T01:07:24.025Z,42.60
2017-12-19T01:09:52.290Z,61.77
2017-12-19T01:12:20.570Z,50.67
2017-12-19T01:14:48.817Z,55.57
2017-12-19T01:17:17.102Z,62.33
2017-12-19T01:19:46.090Z,50.83
2017-12-19T01:22:15.089Z,50.03
2017-12-19T01:24:44.099Z,52.60
2017-12-19T01:27:12.373Z,45.77
2017-12-19T01:29:40.626Z,52.23
2017-12-19T01:32:09.653Z,53.17
2017-12-19T01:34:38.689Z,68.13
2017-12-19T01:37:06.951Z,59.57
2017-12-19T01:39:35.194Z,54.23
2017-12-19T01:42:03.466Z,53.93
2017-12-19T01:44:32.491Z,59.17
2017-12-19T01:47:00.774Z,54.60
2017-12-19T01:49:29.067Z,63.90
2017-12-19T01:51:57.322Z,68.97
2017-12-19T01:54:25.578Z,69.63
2017-12-19T01:56:53.842Z,61.80
2017-12-19T01:59:22.928Z,59.83
2017-12-19T02:01:51.130Z,62.50
2017-12-19T02:04:19.392Z,63.13
2017-12-19T02:06:48.486Z,131.90
2017-12-19T02:09:17.499Z,80.00
2017-12-19T02:11:45.782Z,97.87
2017-12-19T02:14:14.030Z,90.97
2017-12-19T02:16:42.445Z,102.10
2017-12-19T02:19:10.731Z,134.47
2017-12-19T02:21:39.797Z,111.43
2017-12-19T02:24:08.062Z,112.70
2017-12-19T02:26:36.384Z,115.87
2017-12-19T02:29:04.619Z,115.13
2017-12-19T02:31:33.652Z,145.07
2017-12-19T02:34:01.930Z,128.43
2017-12-19T02:36:30.195Z,111.90
2017-12-19T02:38:58.499Z,133.23
2017-12-19T02:41:26.772Z,119.97
2017-12-19T02:43:55.063Z,153.13
2017-12-19T02:46:23.329Z,141.53
2017-12-19T02:48:51.648Z,144.20
2017-12-19T02:51:20.688Z,127.37
2017-12-19T02:53:48.977Z,165.83
2017-12-19T02:56:17.304Z,141.27
2017-12-19T02:58:45.601Z,162.87
2017-12-19T03:01:13.901Z,147.47
2017-12-19T03:03:42.184Z,118.57
2017-12-19T03:06:10.475Z,131.60
2017-12-19T03:08:38.740Z,133.10
2017-12-19T03:11:07.033Z,123.43
2017-12-19T03:13:35.976Z,111.43
2017-12-19T03:16:05.019Z,115.83
2017-12-19T03:18:34.119Z,106.20
2017-12-19T03:21:02.398Z,85.47
2017-12-19T03:23:30.708Z,104.17
2017-12-19T03:25:59.757Z,120.27
2017-12-19T03:28:28.028Z,104.77
2017-12-19T03:30:56.270Z,96.70
2017-12-19T03:33:25.309Z,86.40
2017-12-19T03:35:53.558Z,94.77
2017-12-19T03:38:21.862Z,83.40
2017-12-19T03:40:50.154Z,88.90
2017-12-19T03:43:18.461Z,93.00
2017-12-19T03:45:46.844Z,87.50
2017-12-19T03:48:15.066Z,79.73
2017-12-19T03:50:43.364Z,74.53
2017-12-19T03:53:11.598Z,74.87
2017-12-19T03:55:39.921Z,82.30
2017-12-19T03:58:08.205Z,64.87
2017-12-19T04:00:36.483Z,67.27
2017-12-19T04:03:04.750Z,76.60
2017-12-19T04:05:33.031Z,62.07
2017-12-19T04:08:02.128Z,69.33
2017-12-19T04:10:30.411Z,70.33
2017-12-19T04:12:58.926Z,64.43
2017-12-19T04:15:27.956Z,51.53
2017-12-19T04:17:56.244Z,62.23
2017-12-19T04:20:24.510Z,66.17
2017-12-19T04:22:52.767Z,64.67
2017-12-19T04:25:21.800Z,62.93
2017-12-19T04:27:50.042Z,55.97
2017-12-19T04:30:18.355Z,85.23
2017-12-19T04:32:46.607Z,68.93
2017-12-19T04:35:14.859Z,70.63
2017-12-19T04:37:43.903Z,70.37
2017-12-19T04:40:12.196Z,75.70
2017-12-19T04:42:40.473Z,79.73
2017-12-19T04:45:08.794Z,64.57
2017-12-19T04:47:37.830Z,63.37
2017-12-19T04:50:06.102Z,67.33
2017-12-19T04:52:34.738Z,59.37
2017-12-19T04:55:03.762Z,69.10
2017-12-19T04:57:32.038Z,67.23
2017-12-19T05:00:00.337Z,64.80
2017-12-19T05:02:28.615Z,63.53
2017-12-19T05:04:56.911Z,62.63
2017-12-19T05:07:25.214Z,76.17
2017-12-19T05:09:54.267Z,69.93
2017-12-19T05:12:22.537Z,55.70
2017-12-19T05:14:50.825Z,61.83
2017-12-19T05:17:19.682Z,67.17
2017-12-19T05:19:48.705Z,59.57
2017-12-19T05:22:16.973Z,73.23
2017-12-19T05:24:45.621Z,64.47
2017-12-19T05:27:14.651Z,74.13
2017-12-19T05:29:42.949Z,59.33
2017-12-19T05:32:11.191Z,64.97
2017-12-19T05:34:40.251Z,62.93
2017-12-19T05:37:09.434Z,65.10
2017-12-19T05:39:37.713Z,58.50
2017-12-19T05:42:05.973Z,56.73
2017-12-19T05:44:34.401Z,54.40
2017-12-19T05:47:02.652Z,53.47
2017-12-19T05:49:30.923Z,68.13
2017-12-19T05:51:59.198Z,56.83
2017-12-19T05:54:27.493Z,75.80
2017-12-19T05:56:55.768Z,57.73
2017-12-19T05:59:24.082Z,58.60
2017-12-19T06:01:52.447Z,60.00
2017-12-19T06:04:20.743Z,54.57
2017-12-19T06:06:49.736Z,57.07
2017-12-19T06:09:18.814Z,55.00
2017-12-19T06:11:47.059Z,58.03
2017-12-19T06:14:15.358Z,67.90
2017-12-19T06:16:43.623Z,78.40
2017-12-19T06:19:12.688Z,63.20
2017-12-19T06:21:41.004Z,58.67
2017-12-19T06:24:09.275Z,61.27
2017-12-19T06:26:37.550Z,62.30
2017-12-19T06:29:05.810Z,66.30
2017-12-19T06:31:34.095Z,96.13
2017-12-19T06:34:02.512Z,69.03
2017-12-19T06:36:30.775Z,58.63
2017-12-19T06:38:59.017Z,65.43
2017-12-19T06:41:27.371Z,72.63
2017-12-19T06:43:56.407Z,79.80
2017-12-19T06:46:24.736Z,71.10
2017-12-19T06:48:53.353Z,70.53
2017-12-19T06:51:22.690Z,84.83
2017-12-19T06:53:52.047Z,70.03
2017-12-19T06:56:20.347Z,66.17
2017-12-19T06:58:48.610Z,68.10
2017-12-19T07:01:16.908Z,88.70
2017-12-19T07:03:45.147Z,77.07
2017-12-19T07:06:13.433Z,76.33
2017-12-19T07:08:42.446Z,70.70
2017-12-19T07:11:10.728Z,90.33
2017-12-19T07:13:39.053Z,63.17
2017-12-19T07:16:07.280Z,64.70
2017-12-19T07:18:35.570Z,74.00
2017-12-19T07:21:03.847Z,70.57
2017-12-19T07:23:32.167Z,76.60
2017-12-19T07:26:00.416Z,72.77
2017-12-19T07:28:28.714Z,73.47
2017-12-19T07:30:57.729Z,64.17
2017-12-19T07:33:26.776Z,73.03
2017-12-19T07:35:55.866Z,65.13
2017-12-19T07:38:24.138Z,72.40
2017-12-19T07:40:52.470Z,66.27
2017-12-19T07:43:21.550Z,61.60
2017-12-19T07:45:50.858Z,52.33
2017-12-19T07:48:19.091Z,61.83
2017-12-19T07:50:47.327Z,57.07
2017-12-19T07:53:16.376Z,63.80
2017-12-19T07:55:44.710Z,69.53
2017-12-19T07:58:13.742Z,61.00
2017-12-19T08:00:41.974Z,51.93
2017-12-19T08:03:11.050Z,65.33
2017-12-19T08:05:39.433Z,57.17
2017-12-19T08:08:08.502Z,53.03
2017-12-19T08:10:36.808Z,56.50
2017-12-19T08:13:05.008Z,55.87
2017-12-19T08:15:33.260Z,55.60
2017-12-19T08:18:02.313Z,49.73
2017-12-19T08:20:30.599Z,48.90
2017-12-19T08:22:58.896Z,43.57
2017-12-19T08:25:27.102Z,55.93
2017-12-19T08:27:56.102Z,38.23
2017-12-19T08:30:24.426Z,45.27
2017-12-19T08:32:52.664Z,49.77
2017-12-19T08:35:20.967Z,48.57
2017-12-19T08:37:49.362Z,49.53
2017-12-19T08:40:17.622Z,40.70
2017-12-19T08:42:45.857Z,44.37
2017-12-19T08:45:14.996Z,56.63
2017-12-19T08:47:43.241Z,51.67
2017-12-19T08:50:12.370Z,46.83
2017-12-19T08:52:40.620Z,58.00
2017-12-19T08:55:09.620Z,50.47
2017-12-19T08:57:38.643Z,55.03
2017-12-19T09:00:06.883Z,50.80
2017-12-19T09:02:35.194Z,55.63
2017-12-19T09:05:03.460Z,51.53
2017-12-19T09:07:31.737Z,42.03
2017-12-19T09:09:59.998Z,42.40
2017-12-19T09:12:29.033Z,60.87
2017-12-19T09:14:57.322Z,53.10
2017-12-19T09:17:25.620Z,49.53
2017-12-19T09:19:53.878Z,49.10
2017-12-19T09:22:22.111Z,51.93
2017-12-19T09:24:51.322Z,45.70
2017-12-19T09:27:19.579Z,43.90
2017-12-19T09:29:47.853Z,52.50
2017-12-19T09:32:16.106Z,48.67
2017-12-19T09:34:44.793Z,52.13
2017-12-19T09:37:13.046Z,45.63
2017-12-19T09:39:41.348Z,53.67
2017-12-19T09:42:09.576Z,52.63
2017-12-19T09:44:37.887Z,58.33
2017-12-19T09:47:06.131Z,65.37
2017-12-19T09:49:34.406Z,62.80
2017-12-19T09:52:02.643Z,52.33
2017-12-19T09:54:31.780Z,58.43
2017-12-19T09:57:00.050Z,50.20
2017-12-19T09:59:28.387Z,53.10
2017-12-19T10:01:56.615Z,60.23
2017-12-19T10:04:24.902Z,60.50
2017-12-19T10:06:53.147Z,51.37
2017-12-19T10:09:21.463Z,60.00
2017-12-19T10:11:49.677Z,64.90
2017-12-19T10:14:17.928Z,54.03
2017-12-19T10:16:46.186Z,49.63
2017-12-19T10:19:14.467Z,55.40
2017-12-19T10:21:42.734Z,56.27
2017-12-19T10:24:10.995Z,63.07
2017-12-19T10:26:39.302Z,59.80
2017-12-19T10:29:07.563Z,61.83
2017-12-19T10:31:35.858Z,62.57
2017-12-19T10:40:50.473Z,49.70
2017-12-19T10:43:18.755Z,53.00
2017-12-19T10:45:47.004Z,47.57
2017-12-19T10:48:16.005Z,58.73
2017-12-19T10:50:44.259Z,43.33
2017-12-19T10:53:12.503Z,58.80
2017-12-19T10:55:40.795Z,60.03
2017-12-19T10:58:09.832Z,46.27
2017-12-19T11:00:38.158Z,56.80
2017-12-19T11:03:06.340Z,47.73
2017-12-19T11:05:35.440Z,47.23
2017-12-19T11:08:03.653Z,54.73
2017-12-19T11:10:31.934Z,50.90
2017-12-19T11:13:00.219Z,63.60
2017-12-19T11:15:28.476Z,53.97
2017-12-19T11:17:56.815Z,63.13
2017-12-19T11:20:25.091Z,50.97
2017-12-19T11:22:53.335Z,59.13
2017-12-19T11:25:21.594Z,65.13
2017-12-19T11:27:49.836Z,65.20
2017-12-19T11:30:18.115Z,45.33
2017-12-19T11:32:46.386Z,56.03
2017-12-19T11:35:14.662Z,49.10
2017-12-19T11:37:43.688Z,42.77
2017-12-19T11:40:11.982Z,56.23
2017-12-19T11:42:40.330Z,48.87
2017-12-19T11:45:08.542Z,51.47
2017-12-19T11:47:36.807Z,42.00
2017-12-19T11:50:05.096Z,54.83
2017-12-19T11:52:33.428Z,46.37
2017-12-19T11:55:02.493Z,39.80
2017-12-19T11:57:30.790Z,55.97
2017-12-19T11:59:59.031Z,53.20
2017-12-19T12:02:27.320Z,55.83
2017-12-19T12:04:55.564Z,51.67
2017-12-19T12:07:23.845Z,58.20
2017-12-19T12:09:52.153Z,45.57
2017-12-19T12:12:20.406Z,40.57
2017-12-19T12:14:48.662Z,51.33
2017-12-19T12:17:17.697Z,65.13
2017-12-19T12:19:45.964Z,40.50
2017-12-19T12:22:14.232Z,59.30
2017-12-19T12:24:42.508Z,47.97
2017-12-19T12:27:10.758Z,38.73
2017-12-19T12:29:39.769Z,39.17
2017-12-19T12:32:08.027Z,47.63
2017-12-19T12:34:37.021Z,52.07
2017-12-19T12:37:05.302Z,53.73
2017-12-19T12:39:33.604Z,48.67
2017-12-19T12:42:02.627Z,58.87
2017-12-19T12:44:30.883Z,43.63
2017-12-19T12:46:59.143Z,52.00
2017-12-19T12:49:27.442Z,48.17
2017-12-19T12:51:55.702Z,47.53
2017-12-19T12:54:23.959Z,37.67
2017-12-19T12:56:52.966Z,40.60
2017-12-19T12:59:21.394Z,54.37
2017-12-19T13:01:49.719Z,54.70
2017-12-19T13:04:18.706Z,54.50
2017-12-19T13:06:46.993Z,48.13
2017-12-19T13:09:15.451Z,61.70
2017-12-19T13:11:43.726Z,44.23
2017-12-19T13:14:11.972Z,51.73
2017-12-19T13:16:40.255Z,59.60
2017-12-19T13:19:08.616Z,56.03
2017-12-19T13:21:36.893Z,48.50
2017-12-19T13:24:05.144Z,39.50
2017-12-19T13:26:34.172Z,50.33
2017-12-19T13:29:02.433Z,48.60
2017-12-19T13:31:30.695Z,51.43
2017-12-19T13:33:58.941Z,46.87
2017-12-19T13:36:27.218Z,50.47
2017-12-19T13:38:56.654Z,56.43
2017-12-19T13:41:24.970Z,157.37
2017-12-19T13:43:53.265Z,54.57
2017-12-19T13:46:21.524Z,60.87
2017-12-19T13:48:51.443Z,50.70
2017-12-19T13:51:19.702Z,46.53
2017-12-19T13:53:48.002Z,58.90
2017-12-19T13:56:16.244Z,40.83
2017-12-19T13:58:45.364Z,63.17
2017-12-19T14:01:13.665Z,47.83
2017-12-19T14:03:41.959Z,58.67
2017-12-19T14:06:11.116Z,52.07
2017-12-19T14:08:39.384Z,47.97
2017-12-19T14:11:07.873Z,53.10
2017-12-19T14:13:36.171Z,62.03
2017-12-19T14:16:05.082Z,55.23
2017-12-19T14:18:33.321Z,64.10
2017-12-19T14:21:01.635Z,54.07
2017-12-19T14:23:29.946Z,51.30
2017-12-19T14:25:58.223Z,57.57
2017-12-19T14:28:26.487Z,50.13
2017-12-19T14:30:55.523Z,60.50
2017-12-19T14:33:23.845Z,60.13
2017-12-19T14:35:52.084Z,60.63
2017-12-19T14:38:20.336Z,62.83
2017-12-19T14:40:48.643Z,70.60
2017-12-19T14:43:16.891Z,60.30
2017-12-19T14:45:46.012Z,56.47
2017-12-19T14:48:15.007Z,45.30
2017-12-19T14:50:43.783Z,61.57
2017-12-19T14:53:12.060Z,69.07
2017-12-19T14:55:40.327Z,57.93
2017-12-19T14:58:08.596Z,48.70
2017-12-19T15:00:37.675Z,54.63
2017-12-19T15:03:05.966Z,67.13
2017-12-19T15:05:34.311Z,83.13
2017-12-19T15:08:02.605Z,59.13
2017-12-19T15:10:30.915Z,73.73
2017-12-19T15:12:59.221Z,57.80
2017-12-19T15:15:27.476Z,48.63
2017-12-19T15:17:56.523Z,55.97
2017-12-19T15:20:24.817Z,47.17
2017-12-19T15:22:53.134Z,46.17
2017-12-19T15:25:21.415Z,71.67
2017-12-19T15:27:49.656Z,49.07
2017-12-19T15:30:18.731Z,67.70
2017-12-19T15:32:46.961Z,75.73
2017-12-19T15:35:15.267Z,66.40
2017-12-19T15:37:43.567Z,59.80
2017-12-19T15:40:11.837Z,49.30
2017-12-19T15:42:40.095Z,53.43
2017-12-19T15:45:08.466Z,51.43
2017-12-19T15:47:36.768Z,47.50
2017-12-19T15:50:05.161Z,49.97
2017-12-19T15:52:33.410Z,54.43
2017-12-19T15:55:01.649Z,71.37
2017-12-19T15:57:29.933Z,88.17
2017-12-19T15:59:58.197Z,52.33
2017-12-19T16:02:26.474Z,64.00
2017-12-19T16:04:55.697Z,54.23
2017-12-19T16:07:23.971Z,67.13
2017-12-19T16:09:52.238Z,97.57
2017-12-19T16:12:20.552Z,42.83
2017-12-19T16:14:48.821Z,53.37
2017-12-19T16:17:17.109Z,58.73
2017-12-19T16:19:45.441Z,58.80
2017-12-19T16:22:14.503Z,43.10
2017-12-19T16:24:42.780Z,46.70
2017-12-19T16:27:11.322Z,48.93
2017-12-19T16:29:39.584Z,56.67
2017-12-19T16:32:07.844Z,52.87
2017-12-19T16:34:36.904Z,53.20
2017-12-19T16:37:05.179Z,59.90
2017-12-19T16:39:33.438Z,72.73
2017-12-19T16:42:01.738Z,52.40
2017-12-19T16:44:30.058Z,70.97
2017-12-19T16:46:59.122Z,52.83
2017-12-19T16:49:28.228Z,65.37
2017-12-19T16:51:56.486Z,58.70
2017-12-19T16:54:24.765Z,55.27
2017-12-19T16:56:53.063Z,69.33
2017-12-19T16:59:21.355Z,72.73
2017-12-19T17:01:50.409Z,61.50
2017-12-19T17:04:18.663Z,58.40
2017-12-19T17:06:46.929Z,49.90
2017-12-19T17:09:16.098Z,49.67
2017-12-19T17:11:45.161Z,56.90
2017-12-19T17:14:13.431Z,55.77
2017-12-19T17:16:41.706Z,58.07
2017-12-19T17:19:09.990Z,57.40
2017-12-19T17:21:38.242Z,53.40
2017-12-19T17:24:06.573Z,55.60
2017-12-19T17:26:34.810Z,55.20
2017-12-19T17:29:03.107Z,81.77
2017-12-19T17:31:31.397Z,56.00
2017-12-19T17:33:59.650Z,58.20
2017-12-19T17:36:27.899Z,53.03
2017-12-19T17:38:56.175Z,60.07
2017-12-19T17:41:24.475Z,60.63
2017-12-19T17:43:52.729Z,57.03
2017-12-19T17:46:21.016Z,115.57
2017-12-19T17:48:49.250Z,70.40
2017-12-19T17:51:17.565Z,63.30
2017-12-19T17:53:46.610Z,61.17
2017-12-19T17:56:14.922Z,70.33
2017-12-19T17:58:43.184Z,70.23
2017-12-19T18:01:12.311Z,87.20
2017-12-19T18:03:40.618Z,98.30
2017-12-19T18:06:09.343Z,61.70
2017-12-19T18:08:37.649Z,62.23
2017-12-19T18:11:05.905Z,70.90
2017-12-19T18:13:34.955Z,70.37
2017-12-19T18:16:03.271Z,71.20
2017-12-19T18:18:31.589Z,76.73
2017-12-19T18:20:59.907Z,69.03
2017-12-19T18:23:28.185Z,86.30
2017-12-19T18:25:57.219Z,91.10
2017-12-19T18:28:25.489Z,77.57
2017-12-19T18:30:53.749Z,79.57
2017-12-19T18:33:22.034Z,82.87
2017-12-19T18:35:51.083Z,84.50
2017-12-19T18:38:19.367Z,58.17
2017-12-19T18:40:47.646Z,52.87
2017-12-19T18:43:15.918Z,56.47
2017-12-19T18:45:44.224Z,59.03
2017-12-19T18:48:12.552Z,61.70
2017-12-19T18:50:40.861Z,67.30
2017-12-19T18:53:09.135Z,56.23
2017-12-19T18:55:37.428Z,91.87
2017-12-19T18:58:05.729Z,63.37
2017-12-19T19:00:34.841Z,62.03
2017-12-19T19:03:03.938Z,63.53
2017-12-19T19:05:32.199Z,78.20
2017-12-19T19:08:00.571Z,75.77
2017-12-19T19:10:29.699Z,54.90
2017-12-19T19:12:57.942Z,77.03
2017-12-19T19:15:26.424Z,66.30
2017-12-19T19:17:54.717Z,61.40
2017-12-19T19:20:23.032Z,85.03
2017-12-19T19:22:51.572Z,77.23
2017-12-19T19:25:20.655Z,72.73
2017-12-19T19:27:49.366Z,81.33
2017-12-19T19:30:17.697Z,77.20
2017-12-19T19:32:46.518Z,66.77
2017-12-19T19:35:15.557Z,87.77
2017-12-19T19:37:44.306Z,98.33
2017-12-19T19:40:13.711Z,82.23
2017-12-19T19:42:42.073Z,84.93
2017-12-19T19:45:10.671Z,87.83
2017-12-19T19:47:39.258Z,93.30
2017-12-19T19:50:08.324Z,58.70
2017-12-19T19:52:36.947Z,86.90
2017-12-19T19:55:06.382Z,88.13
2017-12-19T19:57:35.036Z,83.07
2017-12-19T20:00:03.363Z,96.53
2017-12-19T20:02:31.681Z,75.03
2017-12-19T20:05:00.273Z,79.03
2017-12-19T20:07:29.341Z,83.40
2017-12-19T20:09:58.062Z,81.90
2017-12-19T20:12:26.424Z,51.43
2017-12-19T20:14:55.167Z,76.77
2017-12-19T20:17:23.533Z,68.60
2017-12-19T20:19:52.195Z,66.27
2017-12-19T20:22:21.304Z,73.57
2017-12-19T20:24:50.099Z,83.20
2017-12-19T20:27:18.559Z,72.60
2017-12-19T20:29:47.349Z,86.23
2017-12-19T20:32:16.889Z,78.60
2017-12-19T20:34:45.371Z,71.40
2017-12-19T20:37:14.043Z,79.67
2017-12-19T20:39:43.432Z,78.30
2017-12-19T20:42:12.127Z,77.23
2017-12-19T20:44:41.528Z,66.37
2017-12-19T20:47:10.938Z,66.40
2017-12-19T20:49:39.631Z,74.63
2017-12-19T20:52:08.318Z,78.60
2017-12-19T20:54:36.595Z,65.27
2017-12-19T20:57:05.761Z,69.50
2017-12-19T20:59:34.089Z,63.70
2017-12-19T21:02:02.571Z,69.20
2017-12-19T21:04:31.117Z,74.80
2017-12-19T21:07:01.133Z,68.30
2017-12-19T21:09:29.507Z,64.10
2017-12-19T21:11:58.131Z,39.27
2017-12-19T21:14:26.548Z,49.57
2017-12-19T21:16:54.836Z,53.53
2017-12-19T21:19:23.327Z,62.87
2017-12-19T21:21:51.723Z,61.63
2017-12-19T21:24:20.020Z,57.77
2017-12-19T21:26:48.378Z,56.13
2017-12-19T21:29:16.660Z,57.03
2017-12-19T21:31:45.054Z,56.83
2017-12-19T21:34:14.144Z,55.00
2017-12-19T21:36:42.459Z,55.60
2017-12-19T21:39:10.733Z,53.30
2017-12-19T21:41:39.106Z,43.33
2017-12-19T21:44:07.391Z,47.53
2017-12-19T21:46:35.706Z,51.20
2017-12-19T21:49:04.779Z,74.43
2017-12-19T21:51:33.060Z,93.27
2017-12-19T21:54:01.327Z,108.43
2017-12-19T21:56:29.615Z,77.53
2017-12-19T21:58:57.952Z,59.63
2017-12-19T22:01:26.168Z,57.27
2017-12-19T22:03:54.591Z,57.70
2017-12-19T22:06:22.841Z,64.83
2017-12-19T22:08:51.094Z,58.33
2017-12-19T22:11:19.430Z,56.33
2017-12-19T22:13:47.662Z,60.90
2017-12-19T22:16:15.935Z,53.63
2017-12-19T22:18:44.455Z,48.37
2017-12-19T22:21:12.739Z,36.53
2017-12-19T22:23:41.376Z,49.17
2017-12-19T22:26:09.646Z,51.40
2017-12-19T22:28:37.904Z,41.97
2017-12-19T22:31:06.951Z,45.33
2017-12-19T22:33:35.175Z,52.57
2017-12-19T22:36:04.177Z,48.60
2017-12-19T22:38:32.449Z,51.13
2017-12-19T22:41:01.639Z,35.73
2017-12-19T22:43:29.909Z,42.40
2017-12-19T22:45:58.117Z,48.00
2017-12-19T22:48:26.400Z,40.13
2017-12-19T22:50:54.643Z,39.10
2017-12-19T22:53:23.664Z,39.57
2017-12-19T22:55:51.927Z,42.30
2017-12-19T22:58:20.183Z,40.03
2017-12-19T23:00:48.440Z,34.23
2017-12-19T23:03:18.336Z,40.00
2017-12-19T23:05:46.605Z,39.77
2017-12-19T23:08:15.026Z,36.87
2017-12-19T23:10:43.254Z,43.93
2017-12-19T23:13:11.513Z,33.93
2017-12-19T23:15:39.776Z,38.80
2017-12-19T23:18:08.764Z,34.33
2017-12-19T23:20:37.294Z,41.20
2017-12-19T23:23:05.550Z,42.33
2017-12-19T23:25:33.815Z,46.70
2017-12-19T23:28:02.805Z,44.30
2017-12-19T23:30:31.823Z,34.47
2017-12-19T23:33:00.105Z,38.93
2017-12-19T23:35:28.338Z,34.10
2017-12-19T23:37:56.609Z,37.70
2017-12-19T23:40:24.832Z,25.97
2017-12-19T23:42:53.082Z,22.90
2017-12-19T23:45:22.092Z,26.03
2017-12-19T23:47:50.387Z,19.70
2017-12-19T23:50:18.611Z,17.70
2017-12-19T23:52:46.872Z,24.80
2017-12-19T23:55:15.127Z,29.27
2017-12-19T23:57:43.378Z,32.57
